Time;durP1;ratioP1;P1;durP2;ratioP2;P2;SDS_P1;SDS_P2;PMS_P1;PMS_P2;Temp;Humidity;BMP_temperature;BMP_pressure;BME280_temperature;BME280_humidity;BME280_pressure;Samples;Min_cycle;Max_cycle;Signal;HPM_P1;HPM_P2
2022/06/05 00:00:07;;;;;;;;;17.00;12.67;;;;;21.78;43.15;101492.96;110495;1258;22796;-46
2022/06/05 00:02:54;;;;;;;;;17.00;13.00;;;;;21.79;43.28;101486.42;110515;1259;19252;-48
2022/06/05 00:05:21;;;;;;;;;13.67;13.00;;;;;21.81;43.13;101488.91;110623;1259;22245;-46
2022/06/05 00:07:48;;;;;;;;;12.67;12.67;;;;;21.82;43.26;101487.95;110504;1260;20546;-48
2022/06/05 00:10:16;;;;;;;;;13.67;13.00;;;;;21.84;43.13;101483.58;110484;1260;19288;-48
2022/06/05 00:12:43;;;;;;;;;13.67;13.33;;;;;21.86;43.17;101482.42;110629;1259;21187;-48
2022/06/05 00:15:10;;;;;;;;;13.67;13.00;;;;;21.86;42.94;101481.52;110462;1260;22998;-48
2022/06/05 00:17:38;;;;;;;;;15.00;13.33;;;;;21.85;43.03;101483.31;110599;1259;19289;-48
2022/06/05 00:20:05;;;;;;;;;13.00;13.00;;;;;21.83;43.15;101484.77;110671;1258;22961;-49
2022/06/05 00:22:33;;;;;;;;;14.00;14.00;;;;;21.72;43.25;101490.91;110615;1258;21538;-47
2022/06/05 00:25:00;;;;;;;;;12.00;10.00;;;;;21.67;43.45;101483.25;110472;1260;19312;-48
2022/06/05 00:27:28;;;;;;;;;13.67;12.33;;;;;21.69;43.40;101483.79;110462;1260;23787;-48
2022/06/05 00:29:55;;;;;;;;;16.00;14.00;;;;;21.69;43.49;101482.12;110465;1259;20576;-49
2022/06/05 00:32:22;;;;;;;;;13.00;12.33;;;;;21.70;43.28;101486.73;110605;1258;23033;-48
2022/06/05 00:34:49;;;;;;;;;15.00;12.67;;;;;21.72;43.32;101487.80;110629;1259;19622;-48
2022/06/05 00:37:17;;;;;;;;;14.33;13.33;;;;;21.72;43.41;101488.18;110566;1258;21117;-48
2022/06/05 00:39:44;;;;;;;;;14.00;13.00;;;;;21.70;43.18;101483.77;110560;1258;19145;-49
2022/06/05 00:42:11;;;;;;;;;14.00;14.00;;;;;21.57;43.49;101482.08;110503;1261;20789;-45
2022/06/05 00:44:38;;;;;;;;;15.67;15.33;;;;;21.53;43.60;101479.66;110608;1259;21709;-47
2022/06/05 00:47:06;;;;;;;;;13.67;12.00;;;;;21.60;43.67;101482.48;110638;1258;18954;-48
2022/06/05 00:49:33;;;;;;;;;14.00;12.50;;;;;21.67;43.51;101479.36;110582;1259;23204;-48
2022/06/05 00:52:01;;;;;;;;;13.00;11.33;;;;;21.71;43.29;101478.93;110616;1258;20435;-48
2022/06/05 00:54:28;;;;;;;;;13.67;13.00;;;;;21.76;43.49;101478.11;110456;1260;19235;-48
2022/06/05 00:56:55;;;;;;;;;16.00;13.00;;;;;21.76;43.38;101483.17;110438;1260;19660;-50
2022/06/05 00:59:22;;;;;;;;;14.00;13.00;;;;;21.74;43.33;101484.29;110624;1258;23154;-47
2022/06/05 01:01:50;;;;;;;;;14.00;14.00;;;;;21.69;43.39;101483.94;110604;1258;19370;-49
2022/06/05 01:04:17;;;;;;;;;14.33;13.33;;;;;21.67;43.53;101476.19;110434;1260;32073;-50
2022/06/05 01:06:44;;;;;;;;;15.33;14.00;;;;;21.66;43.34;101480.08;110567;1258;20340;-48
2022/06/05 01:09:11;;;;;;;;;13.67;13.00;;;;;21.63;43.33;101473.11;110642;1258;23061;-47
2022/06/05 01:11:39;;;;;;;;;13.00;13.00;;;;;21.48;43.59;101476.89;110620;1258;19695;-48
2022/06/05 01:14:06;;;;;;;;;13.00;13.00;;;;;21.40;44.01;101478.14;110651;1259;20399;-48
2022/06/05 01:16:33;;;;;;;;;14.33;12.67;;;;;21.39;44.02;101481.46;110590;1259;21509;-49
2022/06/05 01:19:00;;;;;;;;;13.00;12.00;;;;;21.44;43.98;101482.98;110480;1260;23882;-48
2022/06/05 01:21:28;;;;;;;;;12.67;12.00;;;;;21.45;43.97;101481.82;110599;1259;20299;-45
2022/06/05 01:23:55;;;;;;;;;17.00;13.67;;;;;21.34;44.06;101484.56;110450;1259;19387;-48
2022/06/05 01:26:22;;;;;;;;;14.00;13.67;;;;;21.28;44.27;101482.46;110610;1259;19552;-47
2022/06/05 01:28:50;;;;;;;;;13.00;12.00;;;;;21.27;44.28;101482.91;110635;1258;20339;-47
2022/06/05 01:31:18;;;;;;;;;13.67;12.00;;;;;21.20;44.50;101485.86;110467;1258;20846;-46
2022/06/05 01:33:45;;;;;;;;;14.33;12.33;;;;;21.20;44.37;101488.23;110452;1260;20146;-47
2022/06/05 01:36:12;;;;;;;;;14.33;13.00;;;;;21.33;44.15;101485.08;110508;1258;23308;-48
2022/06/05 01:38:40;;;;;;;;;15.33;12.67;;;;;21.44;44.10;101485.29;110613;1259;19629;-47
2022/06/05 01:41:07;;;;;;;;;13.00;12.00;;;;;21.49;43.88;101485.32;110671;1258;19854;-47
2022/06/05 01:43:34;;;;;;;;;14.33;13.67;;;;;21.52;43.61;101488.65;110605;1258;24046;-48
2022/06/05 01:46:01;;;;;;;;;16.33;12.00;;;;;21.49;43.68;101490.48;110482;1261;19231;-47
2022/06/05 01:48:29;;;;;;;;;14.00;13.33;;;;;21.46;43.65;101485.23;110583;1258;19573;-48
2022/06/05 01:50:56;;;;;;;;;19.00;17.00;;;;;21.47;43.60;101483.58;110457;1260;20387;-48
2022/06/05 01:53:23;;;;;;;;;13.00;12.00;;;;;21.44;43.80;101482.92;110531;1258;19379;-48
2022/06/05 01:55:50;;;;;;;;;14.33;13.00;;;;;21.40;43.86;101485.23;110605;1258;20139;-48
2022/06/05 01:58:18;;;;;;;;;16.00;15.00;;;;;21.36;43.84;101481.46;110380;1260;21806;-50
2022/06/05 02:00:45;;;;;;;;;15.00;14.33;;;;;21.37;43.91;101480.80;110481;1260;23028;-49
2022/06/05 02:03:12;;;;;;;;;13.00;12.33;;;;;21.36;43.82;101478.88;110634;1259;19624;-48
2022/06/05 02:05:39;;;;;;;;;15.67;14.00;;;;;21.33;43.76;101478.04;110590;1258;20391;-48
2022/06/05 02:08:07;;;;;;;;;16.33;13.33;;;;;21.32;43.72;101478.80;110650;1258;19389;-47
2022/06/05 02:10:34;;;;;;;;;16.00;14.00;;;;;21.30;44.04;101479.12;110400;1260;19784;-50
2022/06/05 02:13:02;;;;;;;;;15.33;15.00;;;;;21.19;44.07;101476.52;110572;1258;20421;-48
2022/06/05 02:15:29;;;;;;;;;14.33;12.67;;;;;21.07;44.24;101477.04;110366;1261;19219;-48
2022/06/05 02:17:56;;;;;;;;;18.00;15.00;;;;;21.05;44.36;101478.52;110367;1259;19712;-46
2022/06/05 02:20:23;;;;;;;;;15.00;14.33;;;;;21.00;44.57;101482.27;110543;1258;20364;-49
2022/06/05 02:22:51;;;;;;;;;18.33;15.33;;;;;20.95;44.43;101481.52;110636;1258;23307;-47
2022/06/05 02:25:18;;;;;;;;;16.00;14.33;;;;;20.97;44.62;101482.27;110472;1260;22742;-48
2022/06/05 02:27:45;;;;;;;;;15.67;15.00;;;;;21.01;44.37;101484.35;110489;1259;20253;-48
2022/06/05 02:30:13;;;;;;;;;16.67;12.67;;;;;21.16;44.32;101485.39;110473;1260;19291;-48
2022/06/05 02:32:40;;;;;;;;;18.00;16.00;;;;;21.21;44.05;101480.27;110618;1258;19647;-48
2022/06/05 02:35:07;;;;;;;;;14.33;14.33;;;;;21.24;44.00;101482.64;110674;1258;20427;-48
2022/06/05 02:37:35;;;;;;;;;15.00;15.00;;;;;21.28;44.11;101481.92;110478;1260;23019;-48
2022/06/05 02:40:02;;;;;;;;;16.33;15.00;;;;;21.28;43.83;101485.34;110435;1261;19599;-47
2022/06/05 02:42:29;;;;;;;;;15.00;13.00;;;;;21.29;43.69;101482.89;110395;1259;20338;-51
2022/06/05 02:44:56;;;;;;;;;12.33;12.33;;;;;21.30;43.86;101484.29;110452;1260;19283;-48
2022/06/05 02:47:26;;;;;;;;;15.33;13.00;;;;;21.31;43.84;101492.20;110651;1258;19519;-47
2022/06/05 02:49:53;;;;;;;;;14.33;13.00;;;;;21.30;43.69;101490.27;110656;1259;20159;-48
2022/06/05 02:52:21;;;;;;;;;16.00;15.00;;;;;21.29;43.77;101498.59;110441;1259;23836;-49
2022/06/05 02:54:48;;;;;;;;;16.00;15.00;;;;;21.29;43.72;101500.14;110456;1259;23687;-47
2022/06/05 02:57:15;;;;;;;;;13.00;12.00;;;;;21.27;43.76;101497.60;110460;1261;22460;-47
2022/06/05 02:59:42;;;;;;;;;13.00;13.00;;;;;21.25;43.89;101501.64;110606;1258;19116;-48
2022/06/05 03:04:54;;;;;;;;;13.67;13.00;;;;;21.23;43.67;101512.84;110615;1258;20359;-48
2022/06/05 03:07:22;;;;;;;;;14.00;14.00;;;;;21.20;43.87;101512.20;110472;1259;19370;-48
2022/06/05 03:09:49;;;;;;;;;16.00;13.00;;;;;21.19;43.73;101517.73;110624;1258;23174;-48
2022/06/05 03:12:16;;;;;;;;;14.50;14.00;;;;;21.21;43.75;101520.11;110626;1259;20283;-47
2022/06/05 03:14:44;;;;;;;;;11.50;11.50;;;;;21.18;43.68;101521.84;110592;1258;19115;-46
2022/06/05 03:17:11;;;;;;;;;15.33;13.67;;;;;21.18;43.75;101523.30;110619;1258;19524;-48
2022/06/05 03:19:38;;;;;;;;;16.00;13.00;;;;;21.18;43.86;101525.92;110440;1260;20565;-48
2022/06/05 03:22:05;;;;;;;;;16.67;15.00;;;;;21.15;43.80;101524.17;110353;1259;23180;-46
2022/06/05 03:24:33;;;;;;;;;16.00;15.00;;;;;21.09;43.98;101524.27;110643;1257;20919;-48
2022/06/05 03:27:00;;;;;;;;;15.50;15.00;;;;;21.15;43.72;101520.89;110619;1258;20312;-48
2022/06/05 03:29:27;;;;;;;;;13.00;12.00;;;;;21.19;43.78;101523.17;110596;1258;19205;-49
2022/06/05 03:31:54;;;;;;;;;16.00;15.00;;;;;21.20;43.75;101519.98;110655;1258;19679;-48
2022/06/05 03:34:22;;;;;;;;;15.67;13.00;;;;;21.24;43.48;101524.34;110600;1258;22929;-48
2022/06/05 03:36:49;;;;;;;;;14.00;12.00;;;;;21.22;43.73;101530.91;110460;1259;21026;-48
2022/06/05 03:39:16;;;;;;;;;15.67;15.33;;;;;21.23;43.71;101533.14;110486;1260;19615;-48
2022/06/05 03:41:44;;;;;;;;;15.00;13.67;;;;;21.25;43.63;101534.77;110606;1258;21010;-48
2022/06/05 03:44:12;;;;;;;;;13.67;13.00;;;;;21.20;43.59;101538.04;110666;1258;20710;-48
2022/06/05 03:46:40;;;;;;;;;16.00;15.00;;;;;21.09;43.77;101541.30;110467;1259;19810;-47
2022/06/05 03:49:07;;;;;;;;;16.67;16.00;;;;;20.98;44.00;101545.96;110609;1259;20263;-48
2022/06/05 03:51:34;;;;;;;;;15.00;13.00;;;;;20.88;44.21;101546.08;110604;1259;21273;-49
2022/06/05 03:54:02;;;;;;;;;13.00;12.00;;;;;20.93;44.39;101552.12;110597;1258;19920;-48
2022/06/05 03:56:29;;;;;;;;;15.67;15.67;;;;;20.99;44.23;101552.54;110620;1258;21224;-48
2022/06/05 03:58:56;;;;;;;;;16.67;16.33;;;;;20.96;44.06;101556.36;110598;1258;19432;-48
2022/06/05 04:01:23;;;;;;;;;13.00;13.00;;;;;21.08;44.14;101553.98;110586;1258;19616;-48
2022/06/05 04:03:51;;;;;;;;;16.50;15.50;;;;;21.09;43.87;101546.98;110579;1258;22979;-46
2022/06/05 04:06:19;;;;;;;;;15.33;13.00;;;;;21.15;43.78;101547.30;110599;1258;23977;-48
2022/06/05 04:08:46;;;;;;;;;14.33;12.67;;;;;21.17;43.99;101548.52;110606;1259;19968;-49
2022/06/05 04:11:13;;;;;;;;;13.00;13.00;;;;;21.01;44.27;101546.87;110650;1259;20489;-50
2022/06/05 04:13:40;;;;;;;;;14.33;12.67;;;;;20.96;44.25;101548.54;110581;1258;26615;-48
2022/06/05 04:16:08;;;;;;;;;11.67;11.33;;;;;21.06;44.29;101552.52;110556;1259;19830;-49
2022/06/05 04:18:35;;;;;;;;;12.50;12.00;;;;;21.18;44.01;101550.06;110577;1258;20250;-48
2022/06/05 04:21:02;;;;;;;;;16.00;14.33;;;;;21.23;44.08;101550.09;110597;1259;23622;-48
2022/06/05 04:23:29;;;;;;;;;15.50;13.00;;;;;21.24;43.89;101550.16;110609;1258;21840;-47
2022/06/05 04:25:56;;;;;;;;;15.00;14.33;;;;;21.20;43.81;101549.59;110633;1258;21608;-49
2022/06/05 04:28:24;;;;;;;;;13.00;12.00;;;;;21.24;43.89;101551.57;110556;1258;18995;-48
2022/06/05 04:30:51;;;;;;;;;13.00;13.00;;;;;21.29;43.85;101550.86;110518;1259;19745;-48
2022/06/05 04:33:19;;;;;;;;;12.33;12.00;;;;;21.31;43.86;101551.19;110617;1258;21696;-46
2022/06/05 04:35:46;;;;;;;;;13.00;12.00;;;;;21.23;43.68;101555.13;110599;1259;23878;-48
2022/06/05 04:38:14;;;;;;;;;12.33;12.33;;;;;21.24;43.86;101559.56;110623;1258;21811;-48
2022/06/05 04:40:42;;;;;;;;;14.33;13.00;;;;;21.28;43.81;101560.05;110620;1258;20318;-49
2022/06/05 04:43:09;;;;;;;;;16.67;15.00;;;;;21.27;43.70;101559.63;110619;1258;19312;-49
2022/06/05 04:45:36;;;;;;;;;15.33;12.33;;;;;21.21;44.06;101564.96;110579;1258;19658;-48
2022/06/05 04:48:03;;;;;;;;;15.67;13.00;;;;;21.24;43.69;101567.25;110615;1259;21045;-49
2022/06/05 04:50:31;;;;;;;;;14.33;10.33;;;;;21.17;44.08;101567.62;110636;1258;19239;-47
2022/06/05 04:52:58;;;;;;;;;12.00;12.00;;;;;21.14;44.23;101569.01;110619;1259;19650;-48
2022/06/05 04:55:25;;;;;;;;;16.67;15.33;;;;;21.27;43.79;101566.40;110520;1258;20400;-47
2022/06/05 04:57:52;;;;;;;;;11.33;11.33;;;;;21.23;43.81;101567.86;110594;1258;19148;-50
2022/06/05 05:00:20;;;;;;;;;19.67;16.67;;;;;21.16;44.02;101570.02;110592;1258;24329;-48
2022/06/05 05:02:47;;;;;;;;;12.67;12.67;;;;;21.19;44.03;101566.15;110608;1258;20355;-48
2022/06/05 05:05:14;;;;;;;;;15.33;15.00;;;;;21.13;44.07;101566.38;110677;1259;19227;-50
2022/06/05 05:07:41;;;;;;;;;15.00;12.00;;;;;21.08;44.12;101564.47;110606;1258;22889;-49
2022/06/05 05:10:09;;;;;;;;;15.00;13.00;;;;;21.11;44.22;101570.01;110604;1259;20318;-47
2022/06/05 05:12:36;;;;;;;;;16.50;13.00;;;;;21.05;44.21;101567.75;110573;1258;19674;-48
2022/06/05 05:15:03;;;;;;;;;16.00;16.00;;;;;20.96;44.36;101571.21;110552;1258;22629;-51
2022/06/05 05:17:30;;;;;;;;;15.67;14.33;;;;;20.95;44.48;101567.88;110596;1258;21380;-48
2022/06/05 05:19:58;;;;;;;;;15.33;15.00;;;;;21.06;44.11;101568.58;110620;1258;22968;-48
2022/06/05 05:22:25;;;;;;;;;17.00;16.00;;;;;21.18;43.93;101564.37;110595;1259;19570;-48
2022/06/05 05:24:53;;;;;;;;;16.00;15.67;;;;;21.31;43.61;101572.63;110561;1258;20578;-46
2022/06/05 05:27:20;;;;;;;;;19.00;17.00;;;;;21.20;43.81;101571.48;110557;1258;23278;-48
2022/06/05 05:29:47;;;;;;;;;13.00;12.00;;;;;21.24;43.79;101568.88;110529;1259;19713;-49
2022/06/05 05:32:15;;;;;;;;;14.33;12.67;;;;;21.27;43.61;101571.13;110625;1259;23347;-48
2022/06/05 05:34:42;;;;;;;;;14.33;13.67;;;;;21.33;43.66;101567.42;110478;1258;19308;-47
2022/06/05 05:37:10;;;;;;;;;16.33;14.33;;;;;21.31;43.71;101560.48;110634;1258;20359;-49
2022/06/05 05:42:22;;;;;;;;;18.67;16.67;;;;;21.49;43.72;101571.65;110445;1258;214969;-48
2022/06/05 05:44:51;;;;;;;;;16.00;13.67;;;;;21.55;43.57;101569.06;110646;1258;19630;-49
2022/06/05 05:47:18;;;;;;;;;20.33;17.33;;;;;21.57;43.38;101566.11;110626;1258;20279;-49
2022/06/05 05:49:45;;;;;;;;;24.00;19.00;;;;;21.51;43.70;101568.93;110466;1260;19284;-49
2022/06/05 05:52:12;;;;;;;;;20.50;16.00;;;;;21.54;44.22;101570.93;110445;1260;19853;-48
2022/06/05 05:54:40;;;;;;;;;19.33;19.00;;;;;21.61;44.22;101566.23;110471;1261;20426;-51
2022/06/05 05:57:08;;;;;;;;;16.00;15.00;;;;;21.63;44.15;101568.94;110379;1261;23071;-49
2022/06/05 05:59:35;;;;;;;;;14.33;13.00;;;;;21.64;43.80;101566.71;110664;1259;19602;-48
2022/06/05 06:02:03;;;;;;;;;15.67;13.67;;;;;21.66;43.97;101567.20;110625;1258;20372;-48
2022/06/05 06:04:30;;;;;;;;;17.00;15.50;;;;;21.77;43.74;101571.46;110389;1259;19810;-48
2022/06/05 06:06:57;;;;;;;;;19.50;17.00;;;;;21.75;42.81;101570.23;110528;1258;19634;-48
2022/06/05 06:09:25;;;;;;;;;17.67;17.00;;;;;21.70;42.68;101568.80;110464;1259;20420;-49
2022/06/05 06:11:52;;;;;;;;;19.67;17.67;;;;;21.62;42.69;101574.48;110485;1259;19374;-48
2022/06/05 06:14:19;;;;;;;;;16.50;15.00;;;;;21.45;42.74;101570.16;110573;1259;19692;-49
2022/06/05 06:16:47;;;;;;;;;18.00;15.67;;;;;21.52;42.54;101571.40;110494;1258;24127;-50
2022/06/05 06:19:14;;;;;;;;;18.33;16.67;;;;;21.44;42.57;101573.50;110575;1258;19077;-48
2022/06/05 06:21:41;;;;;;;;;17.00;16.00;;;;;21.43;42.77;101568.38;110572;1258;19829;-49
2022/06/05 06:24:08;;;;;;;;;14.33;13.67;;;;;21.52;42.73;101565.77;110471;1258;21718;-48
2022/06/05 06:26:36;;;;;;;;;16.33;15.00;;;;;21.59;42.63;101556.84;110547;1259;19560;-48
2022/06/05 06:29:03;;;;;;;;;15.00;12.67;;;;;21.60;42.74;101561.08;110570;1258;19772;-48
2022/06/05 06:31:30;;;;;;;;;16.33;15.00;;;;;21.35;42.79;101556.59;110541;1258;20268;-49
2022/06/05 06:33:57;;;;;;;;;19.50;17.00;;;;;21.25;42.94;101557.11;110507;1258;23190;-53
2022/06/05 06:36:25;;;;;;;;;17.00;17.00;;;;;21.20;42.89;101559.61;110461;1258;19722;-51
2022/06/05 06:38:52;;;;;;;;;20.33;19.33;;;;;21.19;43.01;101561.52;110570;1259;21411;-46
2022/06/05 06:41:20;;;;;;;;;16.67;13.00;;;;;21.35;42.77;101560.61;110621;1258;23213;-49
2022/06/05 06:43:47;;;;;;;;;16.00;15.00;;;;;21.37;42.93;101556.40;110439;1260;23323;-52
2022/06/05 06:46:14;;;;;;;;;48.00;42.00;;;;;21.50;42.87;101548.68;110358;1259;20284;-49
2022/06/05 06:48:41;;;;;;;;;84.67;62.00;;;;;21.70;42.65;101549.80;110423;1259;19821;-48
2022/06/05 06:51:09;;;;;;;;;93.00;68.67;;;;;21.90;42.78;101551.48;110392;1258;21374;-50
2022/06/05 06:53:36;;;;;;;;;153.00;111.50;;;;;21.99;42.39;101549.95;110466;1258;20374;-48
2022/06/05 06:56:03;;;;;;;;;94.00;68.50;;;;;22.13;42.43;101548.55;110433;1259;18995;-50
2022/06/05 06:58:31;;;;;;;;;96.67;70.33;;;;;22.22;42.33;101541.48;110369;1259;19547;-48
2022/06/05 07:00:58;;;;;;;;;93.50;68.00;;;;;22.28;42.36;101543.23;110360;1258;20295;-49
2022/06/05 07:03:25;;;;;;;;;104.33;79.00;;;;;22.23;42.43;101539.64;110480;1258;19293;-49
2022/06/05 07:05:52;;;;;;;;;82.33;61.67;;;;;22.28;42.42;101538.87;110450;1258;22887;-48
2022/06/05 07:08:20;;;;;;;;;87.50;65.00;;;;;22.08;42.47;101546.83;110492;1259;20355;-49
2022/06/05 07:10:47;;;;;;;;;66.50;51.50;;;;;22.10;42.69;101544.38;110494;1259;19510;-49
2022/06/05 07:13:14;;;;;;;;;51.00;43.50;;;;;22.16;42.97;101539.28;110357;1259;22490;-47
2022/06/05 07:15:42;;;;;;;;;47.00;40.00;;;;;22.26;42.59;101538.48;110481;1258;23643;-49
2022/06/05 07:18:09;;;;;;;;;41.00;35.50;;;;;22.28;42.61;101535.90;110449;1258;23177;-49
2022/06/05 07:20:36;;;;;;;;;29.00;28.00;;;;;22.29;42.77;101532.78;110511;1259;23906;-51
2022/06/05 07:23:04;;;;;;;;;28.00;23.33;;;;;22.32;42.83;101531.27;110595;1258;20592;-49
2022/06/05 07:25:31;;;;;;;;;20.33;20.33;;;;;22.26;42.50;101534.48;110560;1258;23930;-48
2022/06/05 07:27:58;;;;;;;;;23.00;19.33;;;;;22.28;42.60;101528.25;110533;1258;19609;-50
2022/06/05 07:30:26;;;;;;;;;20.33;19.33;;;;;22.21;42.57;101526.11;110564;1258;20286;-49
2022/06/05 07:32:53;;;;;;;;;16.67;16.00;;;;;22.05;42.84;101522.95;110597;1258;19762;-47
2022/06/05 07:35:20;;;;;;;;;17.67;16.67;;;;;22.02;42.92;101517.64;110621;1258;19612;-49
2022/06/05 07:37:48;;;;;;;;;20.33;18.33;;;;;22.14;42.97;101513.12;110579;1258;23173;-49
2022/06/05 07:40:15;;;;;;;;;24.33;22.33;;;;;22.19;42.78;101512.73;110484;1258;23640;-48
2022/06/05 07:42:42;;;;;;;;;20.67;18.33;;;;;22.16;42.52;101509.93;110577;1259;21102;-50
2022/06/05 07:45:10;;;;;;;;;16.67;14.67;;;;;22.10;42.78;101512.91;110547;1258;20304;-49
2022/06/05 07:47:37;;;;;;;;;16.67;15.00;;;;;22.17;42.78;101511.30;110553;1259;19223;-48
2022/06/05 07:50:04;;;;;;;;;14.67;13.33;;;;;22.22;42.64;101508.89;110613;1258;19571;-48
2022/06/05 07:55:25;;;;;;;;;16.67;13.33;;;;;22.40;42.59;101508.77;110196;1264;19404;-47
2022/06/05 07:57:52;;;;;;;;;12.00;12.00;;;;;22.39;42.53;101510.27;110166;1264;27707;-49
2022/06/05 08:00:21;;;;;;;;;14.00;14.00;;;;;22.39;42.30;101511.77;110105;1264;21677;-49
2022/06/05 08:02:49;;;;;;;;;19.00;14.00;;;;;22.43;41.97;101510.48;110175;1264;20243;-49
2022/06/05 08:05:16;;;;;;;;;14.00;14.00;;;;;22.46;42.06;101506.27;110221;1263;19590;-49
2022/06/05 08:07:43;;;;;;;;;16.00;14.00;;;;;22.59;41.98;101498.95;110109;1264;22298;-50
2022/06/05 08:10:11;;;;;;;;;17.00;14.00;;;;;22.68;42.06;101498.54;110231;1264;19472;-48
2022/06/05 08:12:38;;;;;;;;;16.67;13.00;;;;;22.73;41.95;101505.63;110229;1263;21657;-48
2022/06/05 08:15:05;;;;;;;;;12.00;11.33;;;;;22.51;41.86;101501.13;110197;1263;21637;-49
2022/06/05 08:17:32;;;;;;;;;9.00;9.00;;;;;22.40;42.06;101503.14;110227;1264;19478;-49
2022/06/05 08:20:00;;;;;;;;;13.67;12.00;;;;;22.29;41.90;101506.70;110214;1264;19660;-48
2022/06/05 08:22:27;;;;;;;;;11.33;11.33;;;;;22.38;41.72;101508.66;110195;1264;23303;-49
2022/06/05 08:24:54;;;;;;;;;10.00;10.00;;;;;22.45;41.52;101508.71;110187;1264;19244;-49
2022/06/05 08:27:23;;;;;;;;;12.33;11.67;;;;;22.60;41.55;101506.14;110202;1263;19865;-48
2022/06/05 08:29:50;;;;;;;;;19.00;16.00;;;;;22.75;41.50;101510.17;110185;1263;23636;-48
2022/06/05 08:32:18;;;;;;;;;14.33;13.00;;;;;22.76;41.19;101510.42;110510;1258;19261;-49
2022/06/05 08:34:45;;;;;;;;;17.00;15.67;;;;;22.46;41.41;101507.91;110482;1260;20792;-48
2022/06/05 08:42:38;;;;;;;;;10.00;10.00;;;;;22.74;41.43;101507.14;110159;1264;19553;-48
2022/06/05 08:45:05;;;;;;;;;16.00;15.50;;;;;22.73;41.42;101503.33;110163;1265;22805;-48
2022/06/05 08:47:33;;;;;;;;;12.00;12.00;;;;;22.81;41.05;101502.05;110128;1265;19246;-49
2022/06/05 08:50:00;;;;;;;;;13.67;12.67;;;;;22.90;40.97;101497.39;110214;1265;23105;-47
2022/06/05 08:52:28;;;;;;;;;12.67;12.67;;;;;22.90;40.83;101487.37;110065;1265;20326;-48
2022/06/05 08:54:55;;;;;;;;;19.33;16.67;;;;;22.89;40.84;101486.04;110082;1265;19300;-52
2022/06/05 08:57:22;;;;;;;;;16.00;14.00;;;;;23.02;41.08;101487.80;110091;1265;21990;-44
2022/06/05 08:59:49;;;;;;;;;11.67;11.67;;;;;22.94;40.94;101488.70;110093;1265;23021;-50
2022/06/05 09:02:17;;;;;;;;;16.67;13.00;;;;;22.76;41.35;101492.85;110150;1264;19264;-48
2022/06/05 09:04:44;;;;;;;;;14.33;13.00;;;;;22.83;40.66;101490.98;110091;1264;19593;-49
2022/06/05 09:07:11;;;;;;;;;13.50;12.00;;;;;23.02;40.26;101492.58;110030;1264;20498;-49
2022/06/05 09:09:39;;;;;;;;;14.67;14.67;;;;;23.16;40.06;101482.73;110084;1265;19351;-48
2022/06/05 09:12:06;;;;;;;;;17.00;16.00;;;;;22.98;39.85;101484.59;110135;1265;19567;-48
2022/06/05 09:14:34;;;;;;;;;12.67;12.67;;;;;22.82;39.55;101484.63;110123;1265;20448;-45
2022/06/05 09:17:01;;;;;;;;;16.67;14.67;;;;;22.66;39.56;101476.30;110149;1265;23066;-48
2022/06/05 09:19:29;;;;;;;;;18.00;14.00;;;;;22.73;39.98;101475.58;110130;1264;19806;-48
2022/06/05 09:21:58;;;;;;;;;16.00;14.67;;;;;22.88;39.93;101476.80;110438;1260;20481;-48
2022/06/05 09:24:25;;;;;;;;;10.67;10.67;;;;;23.09;39.64;101479.65;110429;1260;19509;-47
2022/06/05 09:26:52;;;;;;;;;12.33;12.00;;;;;23.17;39.32;101478.68;110433;1260;19454;-48
2022/06/05 09:29:20;;;;;;;;;13.00;12.00;;;;;22.95;39.58;101478.92;110506;1260;20573;-48
2022/06/05 09:31:47;;;;;;;;;12.33;12.00;;;;;22.98;39.14;101484.05;110443;1261;23194;-48
2022/06/05 09:34:14;;;;;;;;;11.33;10.00;;;;;23.09;38.97;101481.28;110327;1259;19868;-49
2022/06/05 09:36:42;;;;;;;;;9.00;9.00;;;;;23.07;38.60;101476.52;110353;1260;20387;-52
2022/06/05 09:39:09;;;;;;;;;10.00;9.00;;;;;23.10;38.37;101475.91;110430;1259;19147;-47
2022/06/05 09:41:37;;;;;;;;;10.67;10.00;;;;;23.20;38.17;101472.07;110448;1260;19665;-47
2022/06/05 09:44:05;;;;;;;;;13.00;12.00;;;;;23.21;38.12;101471.41;110450;1260;20638;-52
2022/06/05 09:46:32;;;;;;;;;12.00;9.33;;;;;23.00;37.93;101472.73;110436;1260;19418;-45
2022/06/05 09:49:00;;;;;;;;;26.00;25.00;;;;;22.96;37.62;101470.83;110455;1258;21066;-49
2022/06/05 09:51:27;;;;;;;;;20.00;18.00;;;;;23.07;36.76;101469.74;110438;1260;21135;-50
2022/06/05 09:53:55;;;;;;;;;12.00;12.00;;;;;23.11;36.52;101463.65;110458;1260;19220;-48
2022/06/05 09:56:22;;;;;;;;;10.67;10.67;;;;;22.98;36.57;101456.95;110452;1261;21537;-49
2022/06/05 09:58:51;;;;;;;;;12.00;12.00;;;;;23.02;36.97;101456.09;110435;1260;21152;-47
2022/06/05 10:01:18;;;;;;;;;10.00;10.00;;;;;23.10;37.08;101455.17;110453;1260;19284;-48
2022/06/05 10:03:45;;;;;;;;;9.00;8.00;;;;;22.97;37.15;101457.23;110320;1261;19589;-48
2022/06/05 10:06:12;;;;;;;;;13.00;12.00;;;;;22.85;36.62;101460.48;110424;1258;21747;-47
2022/06/05 10:08:41;;;;;;;;;14.00;14.00;;;;;22.89;36.34;101451.49;110512;1259;19701;-46
2022/06/05 10:11:09;;;;;;;;;10.00;9.67;;;;;23.03;35.99;101440.84;110570;1258;19895;-47
2022/06/05 10:13:36;;;;;;;;;13.00;12.00;;;;;23.25;35.43;101441.21;110604;1258;20274;-49
2022/06/05 10:16:03;;;;;;;;;11.33;10.67;;;;;23.10;35.37;101438.77;110396;1260;19370;-47
2022/06/05 10:18:30;;;;;;;;;10.00;10.00;;;;;23.12;35.17;101436.50;110390;1260;20098;-48
2022/06/05 10:20:58;;;;;;;;;13.33;13.00;;;;;23.14;34.91;101433.86;110516;1259;23037;-49
2022/06/05 10:23:25;;;;;;;;;10.67;10.67;;;;;23.15;34.34;101435.02;110549;1258;19616;-49
2022/06/05 10:25:52;;;;;;;;;12.00;12.00;;;;;23.20;33.65;101432.14;110576;1258;19836;-48
2022/06/05 10:28:19;;;;;;;;;10.00;10.00;;;;;23.31;34.07;101425.42;110573;1258;21399;-48
2022/06/05 10:30:47;;;;;;;;;9.33;9.33;;;;;23.40;34.40;101431.89;110497;1258;19161;-47
2022/06/05 10:33:14;;;;;;;;;10.00;9.00;;;;;23.38;34.57;101432.20;110552;1259;19612;-47
2022/06/05 10:35:44;;;;;;;;;12.00;9.33;;;;;22.90;33.93;101428.66;110580;1259;20330;-46
2022/06/05 10:38:11;;;;;;;;;11.33;11.33;;;;;22.81;34.28;101430.07;110648;1258;19115;-48
2022/06/05 10:40:38;;;;;;;;;9.00;8.50;;;;;22.88;34.25;101428.17;110522;1258;19383;-44
2022/06/05 10:43:06;;;;;;;;;12.33;8.00;;;;;22.73;33.85;101426.76;110575;1258;20545;-50
2022/06/05 10:45:34;;;;;;;;;11.00;9.67;;;;;22.71;33.93;101423.52;110458;1258;19482;-48
2022/06/05 10:48:01;;;;;;;;;17.67;16.67;;;;;22.76;33.71;101422.07;110430;1259;19770;-49
2022/06/05 10:50:29;;;;;;;;;16.67;14.67;;;;;22.93;33.67;101419.95;110596;1258;20354;-50
2022/06/05 10:52:56;;;;;;;;;14.00;13.00;;;;;23.00;33.80;101413.16;110425;1258;19828;-52
2022/06/05 10:55:23;;;;;;;;;12.00;9.67;;;;;22.91;33.69;101415.47;110511;1258;20995;-53
2022/06/05 10:57:50;;;;;;;;;11.33;10.00;;;;;22.75;33.59;101411.93;110576;1258;20353;-55
2022/06/05 11:00:18;;;;;;;;;9.50;9.50;;;;;22.96;34.13;101406.14;110387;1261;21917;-52
2022/06/05 11:02:45;;;;;;;;;12.00;9.33;;;;;23.19;34.12;101405.10;110502;1258;19561;-52
2022/06/05 11:05:13;;;;;;;;;8.67;8.00;;;;;23.25;33.97;101404.35;110630;1259;20280;-51
2022/06/05 11:07:40;;;;;;;;;9.00;8.33;;;;;22.96;34.10;101404.80;110592;1258;23552;-50
2022/06/05 11:10:07;;;;;;;;;7.33;7.33;;;;;22.88;34.40;101398.84;110599;1258;19749;-53
2022/06/05 11:15:19;;;;;;;;;8.00;8.00;;;;;23.10;34.59;101395.93;110535;1258;19239;-52
2022/06/05 11:17:46;;;;;;;;;6.00;6.00;;;;;22.96;34.94;101393.31;110547;1258;19559;-48